createdAt,value
2023-04-10T00:00:27.791Z,7.1714
2023-04-10T00:01:30.122Z,7.4330
2023-04-10T00:02:32.536Z,7.7392
2023-04-10T00:03:34.883Z,7.2404
2023-04-10T00:04:37.249Z,7.5024
2023-04-10T00:05:39.470Z,7.2645
2023-04-10T00:06:41.791Z,6.7968
2023-04-10T00:07:44.130Z,7.0239
2023-04-10T00:08:46.509Z,6.9853
2023-04-10T00:09:48.839Z,6.9775
2023-04-10T00:10:51.156Z,7.1050
2023-04-10T00:11:53.467Z,7.2832
2023-04-10T00:12:55.795Z,7.8120
2023-04-10T00:13:58.135Z,7.2149
2023-04-10T00:15:00.525Z,7.4565
2023-04-10T00:16:02.875Z,7.1717
2023-04-10T00:17:05.164Z,7.1991
2023-04-10T00:18:07.549Z,6.4875
2023-04-10T00:19:09.848Z,6.8528
2023-04-10T00:20:12.207Z,7.0117
2023-04-10T00:21:14.570Z,6.8333
2023-04-10T00:22:16.829Z,6.9291
2023-04-10T00:23:19.253Z,6.6884
2023-04-10T00:24:21.503Z,6.6812
2023-04-10T00:25:23.888Z,6.8922
2023-04-10T00:26:26.210Z,7.3913
2023-04-10T00:27:28.543Z,7.3904
2023-04-10T00:28:30.884Z,7.2205
2023-04-10T00:29:33.183Z,7.5611
2023-04-10T00:30:35.562Z,6.9611
2023-04-10T00:31:37.874Z,7.0876
2023-04-10T00:32:40.339Z,7.4601
2023-04-10T00:33:42.669Z,7.5568
2023-04-10T00:34:45.033Z,7.1239
2023-04-10T00:35:47.300Z,7.2886
2023-04-10T00:36:49.698Z,7.4341
2023-04-10T00:37:51.964Z,7.1760
2023-04-10T00:38:54.374Z,6.8381
2023-04-10T00:39:56.651Z,7.0686
2023-04-10T00:40:59.001Z,6.8225
2023-04-10T00:42:01.313Z,6.7015
2023-04-10T00:43:03.697Z,7.3935
2023-04-10T00:44:06.050Z,7.2813
2023-04-10T00:45:08.363Z,7.4486
2023-04-10T00:46:10.707Z,7.0578
2023-04-10T00:47:13.041Z,7.2211
2023-04-10T00:48:15.386Z,7.5538
2023-04-10T00:49:17.662Z,7.6714
2023-04-10T00:50:20.719Z,7.1713
2023-04-10T00:51:22.402Z,7.4583
2023-04-10T00:52:24.716Z,7.4139
2023-04-10T00:53:27.094Z,7.5972
2023-04-10T00:54:29.392Z,7.7512
2023-04-10T00:55:31.711Z,7.3680
2023-04-10T00:56:34.024Z,7.5111
2023-04-10T00:57:36.378Z,7.6482
2023-04-10T00:58:38.712Z,7.3695
2023-04-10T00:59:41.058Z,7.1778
2023-04-10T01:00:43.400Z,7.5523
2023-04-10T01:01:45.840Z,7.2876
2023-04-10T01:02:48.228Z,7.7592
2023-04-10T01:03:50.439Z,7.0547
2023-04-10T01:04:53.211Z,7.4063
2023-04-10T01:05:55.040Z,7.2516
2023-04-10T01:06:57.412Z,7.1414
2023-04-10T01:07:59.720Z,7.2619
2023-04-10T01:09:02.139Z,7.9147
2023-04-10T01:10:04.393Z,7.6193
2023-04-10T01:11:06.778Z,7.6229
2023-04-10T01:12:09.055Z,8.0914
2023-04-10T01:13:11.380Z,7.5296
2023-04-10T01:14:13.805Z,7.7967
2023-04-10T01:15:16.093Z,7.5716
2023-04-10T01:16:18.444Z,7.6997
2023-04-10T01:17:20.753Z,7.3343
2023-04-10T01:18:23.105Z,7.7620
2023-04-10T01:19:25.445Z,7.5261
2023-04-10T01:20:27.806Z,7.9193
2023-04-10T01:21:30.103Z,7.8414
2023-04-10T01:22:32.439Z,7.7660
2023-04-10T01:23:34.808Z,7.5432
2023-04-10T01:24:37.069Z,7.4401
2023-04-10T01:25:39.454Z,8.0710
2023-04-10T01:26:41.792Z,7.4255
2023-04-10T01:27:44.142Z,7.6391
2023-04-10T01:28:46.443Z,8.3178
2023-04-10T01:29:49.198Z,8.4181
2023-04-10T01:30:51.197Z,8.4102
2023-04-10T01:31:53.496Z,8.0472
2023-04-10T01:32:55.845Z,8.2158
2023-04-10T01:33:58.218Z,8.4552
2023-04-10T01:35:00.457Z,7.8929
2023-04-10T01:36:02.937Z,8.5059
2023-04-10T01:37:05.110Z,8.0923
2023-04-10T01:38:07.419Z,8.1220
2023-04-10T01:39:09.756Z,8.4266
2023-04-10T01:40:12.132Z,8.2162
2023-04-10T01:41:14.524Z,7.9821
2023-04-10T01:42:16.785Z,8.3608
2023-04-10T01:43:19.147Z,7.9323
2023-04-10T01:44:21.473Z,8.6977
2023-04-10T01:45:23.809Z,8.6401
2023-04-10T01:46:26.194Z,8.3722
2023-04-10T01:47:28.498Z,8.2423
2023-04-10T01:48:30.838Z,7.5626
2023-04-10T01:49:33.120Z,7.3634
2023-04-10T01:50:35.469Z,7.8297
2023-04-10T01:51:37.845Z,7.8561
2023-04-10T01:52:40.172Z,8.3516
2023-04-10T01:53:42.449Z,8.3927
2023-04-10T01:54:44.813Z,8.7608
2023-04-10T01:55:47.122Z,9.2304
2023-04-10T01:56:49.480Z,9.2625
2023-04-10T01:57:51.853Z,8.6605
2023-04-10T01:58:54.145Z,9.1358
2023-04-10T01:59:57.189Z,9.8009
2023-04-10T02:00:58.927Z,9.4436
2023-04-10T02:02:01.319Z,9.4783
2023-04-10T02:03:03.630Z,9.9101
2023-04-10T02:04:05.922Z,10.5341
2023-04-10T02:05:08.157Z,10.0746
2023-04-10T02:06:10.458Z,10.3265
2023-04-10T02:07:12.834Z,10.6397
2023-04-10T02:08:15.143Z,10.1328
2023-04-10T02:09:17.460Z,10.8095
2023-04-10T02:10:19.783Z,10.0214
2023-04-10T02:11:22.153Z,10.1399
2023-04-10T02:12:24.477Z,9.8420
2023-04-10T02:13:26.844Z,10.7591
2023-04-10T02:14:29.146Z,10.2898
2023-04-10T02:15:31.453Z,10.6168
2023-04-10T02:16:33.875Z,11.1941
2023-04-10T02:17:36.201Z,11.2035
2023-04-10T02:18:38.478Z,11.1211
2023-04-10T02:19:40.835Z,11.1639
2023-04-10T02:20:43.125Z,10.4816
2023-04-10T02:21:45.492Z,10.8527
2023-04-10T02:22:47.780Z,11.1027
2023-04-10T02:23:50.182Z,10.6372
2023-04-10T02:24:52.448Z,10.5408
2023-04-10T02:25:54.807Z,10.8057
2023-04-10T02:26:57.203Z,10.4851
2023-04-10T02:28:00.184Z,9.6358
2023-04-10T02:29:01.844Z,9.0616
2023-04-10T02:30:04.159Z,9.1864
2023-04-10T02:31:06.497Z,9.3060
2023-04-10T02:32:08.868Z,9.8302
2023-04-10T02:33:11.167Z,9.2583
2023-04-10T02:34:13.610Z,9.2294
2023-04-10T02:35:15.857Z,9.5051
2023-04-10T02:36:18.152Z,10.1562
2023-04-10T02:37:20.474Z,9.6470
2023-04-10T02:38:22.813Z,10.1752
2023-04-10T02:39:25.220Z,9.5492
2023-04-10T02:40:27.501Z,8.9967
2023-04-10T02:41:29.864Z,9.1966
2023-04-10T02:42:32.152Z,9.0090
2023-04-10T02:43:34.488Z,9.0732
2023-04-10T02:44:36.785Z,8.9953
2023-04-10T02:45:39.136Z,9.0374
2023-04-10T02:46:41.466Z,8.9978
2023-04-10T02:47:43.911Z,9.4244
2023-04-10T02:48:46.159Z,9.4619
2023-04-10T02:49:48.504Z,9.4830
2023-04-10T02:50:51.673Z,9.5009
2023-04-10T02:51:53.131Z,8.6421
2023-04-10T02:52:55.481Z,8.8764
2023-04-10T02:53:57.805Z,8.9792
2023-04-10T02:55:00.131Z,8.8842
2023-04-10T02:56:02.573Z,9.3307
2023-04-10T02:57:04.809Z,8.2018
2023-04-10T02:58:07.135Z,8.7415
2023-04-10T02:59:09.430Z,9.5148
2023-04-10T03:00:11.794Z,9.0044
2023-04-10T03:01:14.143Z,8.1482
2023-04-10T03:02:16.510Z,8.7452
2023-04-10T03:03:18.900Z,9.0334
2023-04-10T03:04:21.257Z,9.4267
2023-04-10T03:05:23.449Z,9.1881
2023-04-10T03:06:25.817Z,9.6320
2023-04-10T03:07:28.111Z,8.8912
2023-04-10T03:08:30.466Z,8.7587
2023-04-10T03:09:32.794Z,8.6166
2023-04-10T03:10:35.106Z,9.2732
2023-04-10T03:11:37.466Z,9.4923
2023-04-10T03:12:39.792Z,8.8792
2023-04-10T03:13:42.111Z,8.6904
2023-04-10T03:14:44.541Z,8.7966
2023-04-10T03:15:46.808Z,8.6868
2023-04-10T03:16:49.110Z,9.4697
2023-04-10T03:17:51.457Z,8.8805
2023-04-10T03:18:53.835Z,9.0874
2023-04-10T03:19:56.123Z,8.5903
2023-04-10T03:20:58.454Z,9.5693
2023-04-10T03:22:00.793Z,9.1357
2023-04-10T03:23:03.147Z,9.2275
2023-04-10T03:24:05.486Z,9.3144
2023-04-10T03:25:07.791Z,9.8288
2023-04-10T03:26:10.159Z,9.1732
2023-04-10T03:27:12.479Z,9.6801
2023-04-10T03:28:14.820Z,9.8431
2023-04-10T03:29:17.655Z,11.0071
2023-04-10T03:30:19.501Z,10.3084
2023-04-10T03:31:21.886Z,10.1440
2023-04-10T03:32:24.182Z,9.5031
2023-04-10T03:33:26.499Z,10.2309
2023-04-10T03:34:28.832Z,9.7224
2023-04-10T03:35:31.242Z,9.8176
2023-04-10T03:36:33.502Z,10.2004
2023-04-10T03:37:35.871Z,9.8198
2023-04-10T03:38:38.171Z,9.5445
2023-04-10T03:39:40.525Z,9.1919
2023-04-10T03:40:44.158Z,9.6160
2023-04-10T03:41:45.250Z,9.5605
2023-04-10T03:42:47.514Z,9.7000
2023-04-10T03:43:49.856Z,9.9106
2023-04-10T03:44:52.250Z,9.0947
2023-04-10T03:45:54.530Z,9.6495
2023-04-10T03:46:56.914Z,9.8081
2023-04-10T03:48:00.281Z,10.2942
2023-04-10T03:49:01.568Z,10.0739
2023-04-10T03:50:03.910Z,9.5970
2023-04-10T03:51:06.225Z,9.2859
2023-04-10T03:52:08.557Z,9.8360
2023-04-10T03:53:10.956Z,10.6951
2023-04-10T03:54:13.247Z,10.1373
2023-04-10T03:55:15.569Z,9.6508
2023-04-10T03:56:17.924Z,10.1931
2023-04-10T03:57:20.247Z,10.3101
2023-04-10T03:58:22.614Z,10.6719
2023-04-10T03:59:37.357Z,10.0512
2023-04-10T04:00:27.293Z,9.7370
2023-04-10T04:01:29.617Z,10.5137
2023-04-10T04:02:32.055Z,10.4100
2023-04-10T04:03:34.456Z,9.4243
2023-04-10T04:04:36.831Z,9.5228
2023-04-10T04:05:38.955Z,10.0711
2023-04-10T04:06:41.270Z,10.1838
2023-04-10T04:07:43.626Z,10.7872
2023-04-10T04:08:45.960Z,10.7591
2023-04-10T04:09:48.288Z,10.9137
2023-04-10T04:10:50.618Z,10.8110
2023-04-10T04:11:52.940Z,10.2830
2023-04-10T04:12:55.283Z,10.1793
2023-04-10T04:13:57.658Z,10.0862
2023-04-10T04:14:59.950Z,9.8023
2023-04-10T04:16:02.290Z,10.4451
2023-04-10T04:17:04.736Z,10.5520
2023-04-10T04:18:06.963Z,10.7645
2023-04-10T04:19:09.750Z,10.0163
2023-04-10T04:20:11.638Z,10.6966
2023-04-10T04:21:13.952Z,10.1804
2023-04-10T04:22:16.321Z,10.8448
2023-04-10T04:23:18.626Z,10.6733
2023-04-10T04:24:20.991Z,10.6389
2023-04-10T04:25:23.322Z,11.1243
2023-04-10T04:26:25.695Z,11.3248
2023-04-10T04:27:27.998Z,10.7400
2023-04-10T04:28:30.550Z,10.5908
2023-04-10T04:29:32.666Z,11.0868
2023-04-10T04:30:34.989Z,11.0535
2023-04-10T04:31:58.548Z,11.4472
2023-04-10T04:32:40.169Z,11.0127
2023-04-10T04:33:42.087Z,10.8768
2023-04-10T04:34:44.345Z,10.0451
2023-04-10T04:35:46.730Z,11.1348
2023-04-10T04:36:49.088Z,10.3543
2023-04-10T04:37:51.386Z,10.2798
2023-04-10T04:38:53.756Z,10.7968
2023-04-10T04:39:56.161Z,9.8770
2023-04-10T04:40:58.469Z,10.9842
2023-04-10T04:42:00.828Z,10.3639
2023-04-10T04:43:03.211Z,10.3482
2023-04-10T04:44:05.501Z,10.5554
2023-04-10T04:45:07.826Z,10.6176
2023-04-10T04:46:10.183Z,10.6518
2023-04-10T04:47:12.520Z,10.2464
2023-04-10T04:48:14.852Z,9.4303
2023-04-10T04:49:17.156Z,10.7933
2023-04-10T04:50:19.501Z,10.1854
2023-04-10T04:51:21.859Z,10.4912
2023-04-10T04:52:24.181Z,10.5028
2023-04-10T04:53:26.506Z,9.1940
2023-04-10T04:54:28.847Z,10.3658
2023-04-10T04:55:31.192Z,12.6594
2023-04-10T04:56:33.520Z,12.6984
2023-04-10T04:57:35.883Z,11.7166
2023-04-10T04:58:38.189Z,11.8134
2023-04-10T04:59:40.525Z,12.2206
2023-04-10T05:00:42.837Z,11.9899
2023-04-10T05:01:45.277Z,11.4507
2023-04-10T05:02:47.636Z,12.2772
2023-04-10T05:03:49.991Z,11.9788
2023-04-10T05:04:52.203Z,10.7718
2023-04-10T05:05:54.549Z,11.3024
2023-04-10T05:06:56.888Z,11.1289
2023-04-10T05:07:59.255Z,11.1955
2023-04-10T05:09:01.575Z,10.7057
2023-04-10T05:10:03.922Z,10.6463
2023-04-10T05:11:06.249Z,10.4385
2023-04-10T05:12:08.590Z,10.9366
2023-04-10T05:13:10.893Z,11.4273
2023-04-10T05:14:13.211Z,11.0929
2023-04-10T05:15:15.593Z,11.0505
2023-04-10T05:16:18.007Z,11.4978
2023-04-10T05:17:20.261Z,10.5359
2023-04-10T05:18:22.606Z,11.5714
2023-04-10T05:19:24.932Z,11.4436
2023-04-10T05:20:27.229Z,11.6105
2023-04-10T05:21:29.569Z,11.6546
2023-04-10T05:22:31.929Z,12.1265
2023-04-10T05:23:34.265Z,11.2514
2023-04-10T05:24:36.592Z,11.3718
2023-04-10T05:25:38.967Z,11.7927
2023-04-10T05:26:41.257Z,10.9176
2023-04-10T05:27:43.609Z,10.6141
2023-04-10T05:28:45.941Z,11.3127
2023-04-10T05:29:48.267Z,11.3260
2023-04-10T05:30:50.698Z,11.6663
2023-04-10T05:31:53.383Z,11.8115
2023-04-10T05:32:55.323Z,11.7513
2023-04-10T05:33:57.614Z,11.9707
2023-04-10T05:34:59.957Z,11.7445
2023-04-10T05:36:02.338Z,11.7821
2023-04-10T05:37:04.620Z,11.4710
2023-04-10T05:38:07.041Z,11.5706
2023-04-10T05:39:09.291Z,11.3306
2023-04-10T05:40:11.588Z,11.1278
2023-04-10T05:41:13.949Z,11.5504
2023-04-10T05:42:16.252Z,12.4386
2023-04-10T05:43:18.624Z,11.5131
2023-04-10T05:44:20.991Z,11.6747
2023-04-10T05:45:23.268Z,11.2111
2023-04-10T05:46:25.625Z,11.7379
2023-04-10T05:47:27.975Z,11.6849
2023-04-10T05:48:30.257Z,11.7638
2023-04-10T05:49:32.615Z,12.1185
2023-04-10T05:50:34.941Z,11.3544
2023-04-10T05:51:37.289Z,13.0802
2023-04-10T05:52:39.598Z,12.6373
2023-04-10T05:53:41.923Z,12.2872
2023-04-10T05:54:44.251Z,11.8697
2023-04-10T05:55:46.627Z,12.8470
2023-04-10T05:56:48.983Z,13.1035
2023-04-10T05:57:51.291Z,13.4925
2023-04-10T05:58:53.790Z,13.8346
2023-04-10T05:59:55.941Z,14.1003
2023-04-10T06:00:58.288Z,13.1260
2023-04-10T06:02:00.640Z,12.9903
2023-04-10T06:03:03.079Z,13.1484
2023-04-10T06:04:05.391Z,12.4568
2023-04-10T06:05:07.683Z,12.7822
2023-04-10T06:06:09.949Z,12.9972
2023-04-10T06:07:12.317Z,12.8027
2023-04-10T06:08:14.639Z,12.9329
2023-04-10T06:09:16.988Z,12.7107
2023-04-10T06:10:19.293Z,12.5050
2023-04-10T06:11:21.638Z,12.7350
2023-04-10T06:12:23.981Z,13.1080
2023-04-10T06:13:27.096Z,12.5192
2023-04-10T06:14:28.693Z,12.2943
2023-04-10T06:15:31.013Z,12.7724
2023-04-10T06:16:33.444Z,13.9946
2023-04-10T06:17:35.690Z,13.0411
2023-04-10T06:18:37.985Z,13.0270
2023-04-10T06:19:40.352Z,12.3997
2023-04-10T06:20:42.652Z,13.0499
2023-04-10T06:21:45.034Z,13.6169
2023-04-10T06:22:48.098Z,12.5848
2023-04-10T06:23:50.588Z,12.6828
2023-04-10T06:24:51.965Z,13.3942
2023-04-10T06:25:54.321Z,14.1291
2023-04-10T06:26:56.705Z,13.1266
2023-04-10T06:27:59.291Z,13.7220
2023-04-10T06:29:01.380Z,12.7267
2023-04-10T06:30:03.654Z,12.6340
2023-04-10T06:31:06.027Z,13.2404
2023-04-10T06:32:08.310Z,14.1873
2023-04-10T06:33:10.610Z,13.9569
2023-04-10T06:34:14.126Z,13.6340
2023-04-10T06:35:15.381Z,14.3149
2023-04-10T06:36:17.653Z,14.6388
2023-04-10T06:37:19.992Z,15.6037
2023-04-10T06:38:22.340Z,16.2421
2023-04-10T06:39:24.669Z,15.8570
2023-04-10T06:40:27.601Z,15.4028
2023-04-10T06:41:29.337Z,16.1217
2023-04-10T06:42:31.698Z,15.6617
2023-04-10T06:43:34.010Z,16.4551
2023-04-10T06:44:36.393Z,16.8196
2023-04-10T06:45:38.697Z,17.8871
2023-04-10T06:46:41.059Z,17.5552
2023-04-10T06:47:43.512Z,17.4278
2023-04-10T06:48:45.734Z,17.2273
2023-04-10T06:49:48.591Z,17.3360
2023-04-10T06:50:50.322Z,17.9560
2023-04-10T06:51:52.634Z,18.2000
2023-04-10T06:52:54.996Z,18.5606
2023-04-10T06:53:57.304Z,18.3839
2023-04-10T06:54:59.809Z,18.5959
2023-04-10T06:56:03.640Z,17.6088
2023-04-10T06:57:04.359Z,18.6191
2023-04-10T06:58:06.705Z,17.8352
2023-04-10T06:59:09.003Z,17.7491
2023-04-10T07:00:11.341Z,18.8330
2023-04-10T07:01:13.680Z,18.6290
2023-04-10T07:02:16.092Z,18.0929
2023-04-10T07:03:18.451Z,18.5372
2023-04-10T07:04:20.660Z,17.6319
2023-04-10T07:05:23.007Z,17.9983
2023-04-10T07:06:25.365Z,17.2664
2023-04-10T07:07:27.698Z,17.8885
2023-04-10T07:08:30.058Z,17.6863
2023-04-10T07:09:32.369Z,18.1969
2023-04-10T07:10:34.723Z,18.0925
2023-04-10T07:11:37.018Z,16.8179
2023-04-10T07:12:39.359Z,18.4836
2023-04-10T07:13:41.686Z,18.0760
2023-04-10T07:14:44.042Z,17.2318
2023-04-10T07:15:46.365Z,17.9509
2023-04-10T07:16:48.744Z,17.7159
2023-04-10T07:17:51.067Z,18.4753
2023-04-10T07:18:53.846Z,17.4609
2023-04-10T07:19:55.719Z,17.0109
2023-04-10T07:20:58.095Z,17.5147
2023-04-10T07:22:00.376Z,16.5409
2023-04-10T07:23:02.723Z,17.9474
2023-04-10T07:24:05.055Z,17.3773
2023-04-10T07:25:07.388Z,16.3596
2023-04-10T07:26:09.710Z,16.9038
2023-04-10T07:27:12.086Z,17.6252
2023-04-10T07:28:14.380Z,18.7504
2023-04-10T07:29:16.702Z,17.4986
2023-04-10T07:30:19.121Z,17.7699
2023-04-10T07:31:21.481Z,17.1524
2023-04-10T07:32:24.087Z,17.5440
2023-04-10T07:33:26.094Z,17.2229
2023-04-10T07:34:28.396Z,17.2650
2023-04-10T07:35:30.735Z,17.0267
2023-04-10T07:36:33.072Z,17.7420
2023-04-10T07:37:35.458Z,17.4049
2023-04-10T07:38:37.754Z,18.0338
2023-04-10T07:39:40.075Z,17.8494
2023-04-10T07:40:42.415Z,17.0231
2023-04-10T07:41:44.747Z,17.1282
2023-04-10T07:42:47.117Z,16.0688
2023-04-10T07:43:49.424Z,17.5966
2023-04-10T07:44:51.820Z,17.0867
2023-04-10T07:45:54.114Z,16.4776
2023-04-10T07:46:56.453Z,17.4628
2023-04-10T07:47:58.819Z,17.9443
2023-04-10T07:49:01.109Z,17.5001
2023-04-10T07:50:03.461Z,18.3195
2023-04-10T07:51:05.765Z,17.9509
2023-04-10T07:52:08.158Z,17.9558
2023-04-10T07:53:10.465Z,17.1952
2023-04-10T07:54:12.791Z,17.1308
2023-04-10T07:55:15.160Z,16.8493
2023-04-10T07:56:17.541Z,17.0964
2023-04-10T07:57:20.017Z,16.9030
2023-04-10T07:58:22.140Z,17.6967
2023-04-10T07:59:24.443Z,17.7810
2023-04-10T08:00:26.812Z,18.3515
2023-04-10T08:01:29.151Z,17.4108
2023-04-10T08:02:31.641Z,17.9612
2023-04-10T08:03:34.671Z,17.3614
2023-04-10T08:04:36.410Z,15.9367
2023-04-10T08:05:38.511Z,16.5156
2023-04-10T08:06:40.848Z,16.7967
2023-04-10T08:07:43.125Z,15.9023
2023-04-10T08:08:45.494Z,15.1842
2023-04-10T08:09:47.786Z,15.7126
2023-04-10T08:10:50.127Z,14.4294
2023-04-10T08:11:52.495Z,15.5564
2023-04-10T08:12:54.804Z,15.4880
2023-04-10T08:13:57.152Z,16.7848
2023-04-10T08:14:59.540Z,16.6702
2023-04-10T08:16:01.828Z,16.8564
2023-04-10T08:17:04.303Z,15.6997
2023-04-10T08:18:06.504Z,16.0307
2023-04-10T08:19:08.821Z,15.8865
2023-04-10T08:20:11.183Z,16.1916
2023-04-10T08:21:13.505Z,15.7563
2023-04-10T08:22:15.869Z,14.8196
2023-04-10T08:23:20.856Z,15.8463
2023-04-10T08:24:20.523Z,16.0311
2023-04-10T08:25:22.954Z,15.7585
2023-04-10T08:26:25.230Z,15.6957
2023-04-10T08:27:27.545Z,15.9817
2023-04-10T08:28:29.930Z,15.0672
2023-04-10T08:29:32.259Z,14.5141
2023-04-10T08:30:34.590Z,14.9387
2023-04-10T08:31:36.885Z,15.0240
2023-04-10T08:32:39.297Z,15.3026
2023-04-10T08:33:41.969Z,15.3034
2023-04-10T08:34:43.981Z,14.7312
2023-04-10T08:35:46.356Z,13.6772
2023-04-10T08:36:48.606Z,13.3615
2023-04-10T08:38:07.809Z,14.2339
2023-04-10T08:38:53.283Z,14.9951
2023-04-10T08:39:55.594Z,14.6868
2023-04-10T08:40:57.969Z,14.1764
2023-04-10T08:42:00.294Z,14.4895
2023-04-10T08:43:02.663Z,13.7571
2023-04-10T08:44:05.088Z,14.4126
2023-04-10T08:45:07.395Z,14.1285
2023-04-10T08:46:09.708Z,13.7070
2023-04-10T08:47:12.104Z,13.7455
2023-04-10T08:48:14.396Z,13.5760
2023-04-10T08:49:16.757Z,13.1160
2023-04-10T08:50:19.055Z,13.3367
2023-04-10T08:51:26.172Z,14.6314
2023-04-10T08:52:23.741Z,13.9264
2023-04-10T08:53:26.080Z,14.0849
2023-04-10T08:54:28.444Z,14.2263
2023-04-10T08:55:30.787Z,13.8785
2023-04-10T08:56:33.124Z,14.0046
2023-04-10T08:57:35.484Z,13.5656
2023-04-10T08:58:37.828Z,12.5635
2023-04-10T08:59:40.171Z,12.9527
2023-04-10T09:00:42.490Z,12.5384
2023-04-10T09:01:44.811Z,12.4324
2023-04-10T09:02:47.270Z,11.9092
2023-04-10T09:03:49.621Z,12.1935
2023-04-10T09:04:51.949Z,12.8051
2023-04-10T09:05:54.171Z,13.4541
2023-04-10T09:06:56.506Z,12.9215
2023-04-10T09:07:58.882Z,13.8007
2023-04-10T09:10:03.569Z,13.7400
2023-04-10T09:11:05.886Z,13.2182
2023-04-10T09:12:08.274Z,13.6157
2023-04-10T09:13:10.604Z,13.6568
2023-04-10T09:14:12.938Z,13.4216
2023-04-10T09:15:15.265Z,12.5327
2023-04-10T09:16:17.705Z,12.3209
2023-04-10T09:17:20.074Z,12.5239
2023-04-10T09:18:22.279Z,13.0272
2023-04-10T09:19:24.674Z,13.1249
2023-04-10T09:20:27.015Z,13.2604
2023-04-10T09:21:29.360Z,13.4656
2023-04-10T09:22:31.688Z,13.3034
2023-04-10T09:23:34.031Z,13.2073
2023-04-10T09:24:36.369Z,12.1587
2023-04-10T09:25:38.722Z,11.8048
2023-04-10T09:26:41.058Z,12.9918
2023-04-10T09:27:43.456Z,13.6232
2023-04-10T09:28:45.729Z,13.2893
2023-04-10T09:29:48.088Z,13.2051
2023-04-10T09:30:50.445Z,12.5635
2023-04-10T09:31:52.780Z,12.5990
2023-04-10T09:32:55.142Z,12.8316
2023-04-10T09:33:57.463Z,12.1167
2023-04-10T09:34:59.775Z,12.1229
2023-04-10T09:36:02.164Z,11.1770
2023-04-10T09:37:04.550Z,10.8019
2023-04-10T09:38:06.848Z,12.8230
2023-04-10T09:39:09.191Z,12.2369
2023-04-10T09:40:11.524Z,12.3673
2023-04-10T09:41:14.009Z,12.0822
2023-04-10T09:42:16.203Z,12.3453
2023-04-10T09:43:18.585Z,11.5293
2023-04-10T09:44:20.906Z,10.9354
2023-04-10T09:45:23.245Z,9.5248
2023-04-10T09:46:25.705Z,9.8591
2023-04-10T09:47:27.966Z,11.6956
2023-04-10T09:48:30.325Z,10.4698
2023-04-10T09:49:32.671Z,10.0699
2023-04-10T09:50:37.133Z,10.7120
2023-04-10T09:51:37.338Z,10.4340
2023-04-10T09:52:39.722Z,10.6405
2023-04-10T09:53:42.017Z,10.9396
2023-04-10T09:54:44.444Z,8.8553
2023-04-10T09:55:46.749Z,8.1187
2023-04-10T09:56:49.165Z,8.7010
2023-04-10T09:57:51.449Z,8.1863
2023-04-10T09:58:54.038Z,8.2297
2023-04-10T09:59:56.137Z,8.6169
2023-04-10T10:00:58.437Z,9.1623
2023-04-10T10:02:00.877Z,9.6881
2023-04-10T10:03:03.276Z,9.4644
2023-04-10T10:04:05.466Z,8.5394
2023-04-10T10:05:07.895Z,8.7021
2023-04-10T10:06:10.155Z,8.6684
2023-04-10T10:07:12.521Z,9.4620
2023-04-10T10:08:14.845Z,9.6286
2023-04-10T10:09:17.194Z,9.0807
2023-04-10T10:10:19.536Z,9.1122
2023-04-10T10:11:21.895Z,9.5165
2023-04-10T10:12:24.245Z,9.5602
2023-04-10T10:13:26.580Z,10.1143
2023-04-10T10:14:28.919Z,9.0132
2023-04-10T10:15:31.342Z,10.3278
2023-04-10T10:16:33.637Z,9.5636
2023-04-10T10:17:35.981Z,8.8625
2023-04-10T10:18:38.286Z,9.4366
2023-04-10T10:19:40.650Z,9.7270
2023-04-10T10:20:42.972Z,9.7276
2023-04-10T10:21:45.323Z,9.2294
2023-04-10T10:22:47.682Z,9.7985
2023-04-10T10:23:50.016Z,9.2067
2023-04-10T10:24:52.383Z,9.1847
2023-04-10T10:25:54.715Z,9.8771
2023-04-10T10:26:57.056Z,9.3269
2023-04-10T10:27:59.401Z,9.6345
2023-04-10T10:29:01.751Z,9.3228
2023-04-10T10:30:11.942Z,9.2053
2023-04-10T10:31:06.463Z,9.3858
2023-04-10T10:32:08.793Z,9.1623
2023-04-10T10:33:11.129Z,9.3014
2023-04-10T10:34:13.474Z,8.7653
2023-04-10T10:35:15.838Z,8.5392
2023-04-10T10:36:18.197Z,8.4339
2023-04-10T10:37:20.516Z,9.2749
2023-04-10T10:38:22.832Z,9.4256
2023-04-10T10:39:25.173Z,8.9596
2023-04-10T10:40:27.532Z,9.5093
2023-04-10T10:41:29.864Z,9.4531
2023-04-10T10:42:32.213Z,9.7920
2023-04-10T10:43:34.554Z,9.8387
2023-04-10T10:44:36.874Z,10.2902
2023-04-10T10:45:39.261Z,9.7402
2023-04-10T10:46:41.567Z,10.4579
2023-04-10T10:47:43.935Z,10.5645
2023-04-10T10:48:46.250Z,10.2283
2023-04-10T10:49:48.583Z,10.7305
2023-04-10T10:50:51.093Z,11.4914
2023-04-10T10:51:53.270Z,10.4885
2023-04-10T10:52:55.605Z,10.8037
2023-04-10T10:53:57.954Z,10.8804
2023-04-10T10:55:00.316Z,11.4252
2023-04-10T10:56:02.726Z,10.9413
2023-04-10T10:57:04.962Z,10.7736
2023-04-10T10:58:07.310Z,10.3730
2023-04-10T10:59:09.645Z,10.4184
2023-04-10T11:00:11.997Z,10.5230
2023-04-10T11:01:14.361Z,10.3866
2023-04-10T11:02:16.821Z,9.9842
2023-04-10T11:03:19.305Z,9.2417
2023-04-10T11:04:21.371Z,9.4389
2023-04-10T11:05:23.716Z,10.0159
2023-04-10T11:06:26.063Z,11.0332
2023-04-10T11:07:28.401Z,10.9109
2023-04-10T11:08:30.752Z,10.0233
2023-04-10T11:09:33.088Z,10.1381
2023-04-10T11:10:35.451Z,10.1767
2023-04-10T11:11:37.776Z,10.3028
2023-04-10T11:12:40.121Z,10.2739
2023-04-10T11:13:42.531Z,9.5757
2023-04-10T11:14:44.823Z,9.2189
2023-04-10T11:15:47.153Z,9.5868
2023-04-10T11:16:49.596Z,10.0269
2023-04-10T11:17:52.316Z,9.3933
2023-04-10T11:19:06.363Z,8.7206
2023-04-10T11:19:56.533Z,9.6851
2023-04-10T11:20:58.885Z,8.8293
2023-04-10T11:22:01.212Z,9.8315
2023-04-10T11:23:03.557Z,8.9956
2023-04-10T11:24:05.920Z,9.5947
2023-04-10T11:25:08.259Z,8.9196
2023-04-10T11:26:10.583Z,8.7321
2023-04-10T11:27:12.939Z,8.8215
2023-04-10T11:28:15.269Z,8.5336
2023-04-10T11:29:17.663Z,9.2702
2023-04-10T11:30:19.961Z,9.0376
2023-04-10T11:31:22.601Z,9.0056
2023-04-10T11:32:24.668Z,8.9326
2023-04-10T11:33:26.999Z,9.0270
2023-04-10T11:34:29.337Z,8.9091
2023-04-10T11:35:31.951Z,8.5460
2023-04-10T11:36:34.043Z,7.6515
2023-04-10T11:37:36.378Z,7.4886
2023-04-10T11:38:38.710Z,7.4003
2023-04-10T11:39:41.059Z,7.9200
2023-04-10T11:40:43.403Z,7.9850
2023-04-10T11:41:45.762Z,7.6943
2023-04-10T11:42:48.099Z,7.9609
2023-04-10T11:43:50.437Z,8.4429
2023-04-10T11:44:52.781Z,8.5205
2023-04-10T11:45:55.171Z,7.6559
2023-04-10T11:46:57.488Z,7.9759
2023-04-10T11:47:59.843Z,8.1778
2023-04-10T11:49:02.198Z,8.3997
2023-04-10T11:50:04.506Z,8.1928
2023-04-10T11:51:06.832Z,8.0185
2023-04-10T11:52:09.242Z,8.4099
2023-04-10T11:53:11.528Z,9.2017
2023-04-10T11:54:13.864Z,8.6497
2023-04-10T11:55:16.218Z,7.6424
2023-04-10T11:56:18.557Z,8.0123
2023-04-10T11:57:20.921Z,8.6482
2023-04-10T11:58:23.264Z,8.4876
2023-04-10T11:59:25.598Z,8.9713
2023-04-10T12:00:27.944Z,8.6465
2023-04-10T12:01:30.293Z,9.3150
2023-04-10T12:02:32.740Z,10.0714
2023-04-10T12:03:35.153Z,9.3174
2023-04-10T12:04:37.789Z,9.7152
2023-04-10T12:05:39.660Z,10.1263
2023-04-10T12:06:42.005Z,10.3266
2023-04-10T12:07:44.362Z,10.9108
2023-04-10T12:08:46.692Z,9.3502
2023-04-10T12:09:49.039Z,9.0806
2023-04-10T12:10:51.379Z,9.2030
2023-04-10T12:11:53.727Z,10.0808
2023-04-10T12:12:56.080Z,9.7292
2023-04-10T12:13:58.412Z,9.8806
2023-04-10T12:15:00.748Z,10.4295
2023-04-10T12:16:03.138Z,10.2069
2023-04-10T12:17:05.425Z,9.1585
2023-04-10T12:18:07.792Z,9.2047
2023-04-10T12:19:10.109Z,9.8811
2023-04-10T12:20:12.484Z,10.2461
2023-04-10T12:21:14.793Z,10.2073
2023-04-10T12:22:17.149Z,10.2203
2023-04-10T12:23:19.496Z,9.5801
2023-04-10T12:24:21.831Z,8.1024
2023-04-10T12:25:24.171Z,9.3851
2023-04-10T12:26:26.513Z,9.0909
2023-04-10T12:27:28.986Z,8.8203
2023-04-10T12:28:31.214Z,8.4996
2023-04-10T12:29:33.538Z,7.5555
2023-04-10T12:30:35.873Z,8.0053
2023-04-10T12:31:38.323Z,8.7443
2023-04-10T12:32:40.590Z,9.7238
2023-04-10T12:33:42.904Z,10.7865
2023-04-10T12:34:45.249Z,10.9809
2023-04-10T12:35:47.598Z,10.4773
2023-04-10T12:36:49.932Z,10.7448
2023-04-10T12:37:52.309Z,9.9638
2023-04-10T12:38:54.826Z,9.8948
2023-04-10T12:39:56.963Z,10.1542
2023-04-10T12:40:59.304Z,9.4866
2023-04-10T12:42:01.649Z,9.1666
2023-04-10T12:43:04.026Z,10.4859
2023-04-10T12:44:06.336Z,10.1481
2023-04-10T12:45:08.676Z,9.8248